Casper, WY (82601)

8:02 AM MST on February 09, 2016 (GMT -0700)
Casper Mountain Foothills | | Change Station
CLOSE
Current Station
Personal Weather Station
Location: Casper, WY
Elevation: 5334 ft
Nearby Weather Stations

Elev 5334 ft 42.83 °N, 106.31 °W | Updated 2 minutes ago

Clear
Clear
41.6 °F
Feels Like 38 °F
N
5.0
Wind Variable Wind from SW
Gusts 5.0 mph

Today
High -- | Low -- °F
--% Chance of Precip.
Yesterday
High -- | Low -- °F
Precip. -- in
Pressure 30.43 in
Visibility 10.0 miles
Clouds Clear
Windchill 38 °F
Dew Point 20 °F
Humidity 41%
Rainfall 0.00 in
Snow Depth Not available.
7:11 AM 5:28 PM
New Moon, 1% visible
METAR KCPR 091453Z 24015KT 10SM CLR M02/M07 A3035 RMK AO2 PK WND 24027/1359 SLP303 T10171072 53002
Pressure 30.43 in
Visibility 10.0 miles
Clouds Clear
Windchill 38 °F
Dew Point 20 °F
Humidity 41%
Rainfall 0.00 in
Snow Depth Not available.
7:11 AM 5:28 PM
New Moon, 1% visible
METAR KCPR 091453Z 24015KT 10SM CLR M02/M07 A3035 RMK AO2 PK WND 24027/1359 SLP303 T10171072 53002

10-Day Weather Forecast

Almanac

Astronomy

Feb. 09, 2016 Rise Set
Actual Time
Civil Twilight
Nautical Twilight
Astronomical Twilight
Moon
Length of Visible Light
Length of Day
Tomorrow will be .
, % of the Moon is Illuminated

Today's Extremes

State Highs State Lows

Community

WunderPhotos

Upload Photos

1,891,616 photos uploaded!

WunderBlog® & News

Nearby

Air Quality

  Air Quality AQ Index Pollutant
Not available.

Snow Depth

Station Depth Elevation

Earthquake Activity

City Distance Mag. Time & Date
Minimum magnitude displayed is 2.5.

Coastal Water Temperatures

Place Temperature

Stations

Nearby Weather Stations

Station Location Temp. Windchill Dew Point Humidity Wind Precip. Elev Updated Type
                   

Watches & Warnings

There are currently no watches in effect.